createdAt,value
2018-12-14T00:00:46.688Z,5.7
2018-12-14T00:03:46.779Z,5.8
2018-12-14T00:06:46.977Z,5.7
2018-12-14T00:09:46.640Z,5.5
2018-12-14T00:12:47.595Z,5.8
2018-12-14T00:15:46.747Z,5.9
2018-12-14T00:18:46.794Z,5.9
2018-12-14T00:21:46.993Z,6
2018-12-14T00:24:46.764Z,5.8
2018-12-14T00:27:46.737Z,5.8
2018-12-14T00:30:46.655Z,5.8
2018-12-14T00:33:46.761Z,5.9
2018-12-14T00:36:46.591Z,6
2018-12-14T00:39:46.916Z,6
2018-12-14T00:42:46.629Z,5.9
2018-12-14T00:45:46.830Z,5.8
2018-12-14T00:48:46.774Z,5.7
2018-12-14T00:51:46.953Z,5.8
2018-12-14T00:54:46.564Z,5.8
2018-12-14T00:57:47.322Z,5.9
2018-12-14T01:00:46.660Z,6.1
2018-12-14T01:03:46.771Z,6.2
2018-12-14T01:06:47.616Z,6.1
2018-12-14T01:09:46.754Z,5.9
2018-12-14T01:12:46.790Z,5.8
2018-12-14T01:15:46.588Z,5.7
2018-12-14T01:18:46.775Z,5.8
2018-12-14T01:21:46.778Z,6
2018-12-14T01:24:47.487Z,5.9
2018-12-14T01:27:46.629Z,5.9
2018-12-14T01:30:46.531Z,5.9
2018-12-14T01:33:46.845Z,5.9
2018-12-14T01:36:47.002Z,5.8
2018-12-14T01:39:47.011Z,5.9
2018-12-14T01:42:46.812Z,5.9
2018-12-14T01:45:46.756Z,5.9
2018-12-14T01:48:46.636Z,5.9
2018-12-14T01:51:46.882Z,5.8
2018-12-14T01:54:46.782Z,5.8
2018-12-14T01:57:47.409Z,5.9
2018-12-14T02:00:46.945Z,5.9
2018-12-14T02:03:46.975Z,5.9
2018-12-14T02:06:46.809Z,5.8
2018-12-14T02:09:46.603Z,5.9
2018-12-14T02:12:46.826Z,5.9
2018-12-14T02:15:46.576Z,6
2018-12-14T02:18:46.860Z,6.1
2018-12-14T02:21:46.948Z,6.2
2018-12-14T02:24:46.585Z,6.5
2018-12-14T02:27:46.820Z,6.5
2018-12-14T02:30:47.001Z,6.3
2018-12-14T02:33:46.565Z,6.2
2018-12-14T02:36:47.088Z,6
2018-12-14T02:39:46.860Z,6.4
2018-12-14T02:42:46.754Z,6.5
2018-12-14T02:45:46.942Z,6.7
2018-12-14T02:48:46.908Z,6.4
2018-12-14T02:51:46.681Z,6.2
2018-12-14T02:54:47.247Z,6.1
2018-12-14T02:57:46.579Z,6.1
2018-12-14T03:00:46.849Z,6.1
2018-12-14T03:03:47.060Z,6.1
2018-12-14T03:06:46.859Z,6
2018-12-14T03:09:46.622Z,6.1
2018-12-14T03:12:46.941Z,6.4
2018-12-14T03:15:46.779Z,6.3
2018-12-14T03:18:46.574Z,6.4
2018-12-14T03:21:47.001Z,6.3
2018-12-14T03:24:46.626Z,6.2
2018-12-14T03:27:46.464Z,6.1
2018-12-14T03:30:46.617Z,6.3
2018-12-14T03:33:46.855Z,6.7
2018-12-14T03:36:47.169Z,6.3
2018-12-14T03:39:46.579Z,6.3
2018-12-14T03:42:46.876Z,6.2
2018-12-14T03:45:46.532Z,6
2018-12-14T03:48:46.702Z,6.2
2018-12-14T03:51:46.957Z,6.4
2018-12-14T03:54:46.990Z,6.3
2018-12-14T03:57:46.569Z,6.2
2018-12-14T04:00:46.574Z,5.9
2018-12-14T04:03:46.791Z,6
2018-12-14T04:06:46.547Z,5.8
2018-12-14T04:09:46.636Z,5.9
2018-12-14T04:12:46.811Z,6.2
2018-12-14T04:15:46.537Z,6
2018-12-14T04:18:47.565Z,6.2
2018-12-14T04:21:46.612Z,6.2
2018-12-14T04:24:47.194Z,5.9
2018-12-14T04:27:46.533Z,6.6
2018-12-14T04:30:46.498Z,6.4
2018-12-14T04:33:46.671Z,6.4
2018-12-14T04:36:46.828Z,6.3
2018-12-14T04:39:46.594Z,6.3
2018-12-14T04:42:49.341Z,6.2
2018-12-14T04:45:47.187Z,6
2018-12-14T04:48:47.296Z,5.9
2018-12-14T04:51:46.896Z,5.8
2018-12-14T04:54:46.998Z,5.8
2018-12-14T04:57:46.497Z,5.6
2018-12-14T05:00:46.857Z,5.7
2018-12-14T05:03:46.535Z,5.7
2018-12-14T05:06:46.675Z,5.6
2018-12-14T05:09:46.587Z,5.6
2018-12-14T05:12:47.003Z,5.7
2018-12-14T05:15:46.597Z,5.6
2018-12-14T05:18:46.720Z,5.5
2018-12-14T05:21:47.071Z,5.4
2018-12-14T05:24:46.557Z,5.5
2018-12-14T05:27:47.596Z,5.3
2018-12-14T05:30:47.002Z,5.5
2018-12-14T05:33:46.481Z,5.4
2018-12-14T05:36:46.819Z,5.4
2018-12-14T05:39:47.013Z,5.7
2018-12-14T05:42:46.571Z,5.3
2018-12-14T05:45:46.487Z,5.4
2018-12-14T05:48:46.616Z,5.4
2018-12-14T05:51:46.860Z,5.3
2018-12-14T05:54:46.613Z,5.4
2018-12-14T05:57:46.885Z,5.4
2018-12-14T06:00:46.641Z,5.4
2018-12-14T06:03:46.567Z,5.4
2018-12-14T06:06:46.622Z,5.5
2018-12-14T06:09:46.395Z,5.5
2018-12-14T06:12:46.941Z,5.7
2018-12-14T06:15:46.447Z,5.7
2018-12-14T06:18:46.406Z,5.6
2018-12-14T06:21:47.129Z,5.7
2018-12-14T06:24:46.525Z,5.6
2018-12-14T06:27:46.356Z,5.5
2018-12-14T06:30:46.640Z,5.4
2018-12-14T06:33:46.706Z,5.3
2018-12-14T06:36:47.479Z,5.2
2018-12-14T06:39:46.699Z,5.2
2018-12-14T06:42:47.118Z,5.3
2018-12-14T06:45:46.411Z,5.4
2018-12-14T06:48:46.494Z,5.4
2018-12-14T06:51:46.602Z,5.2
2018-12-14T06:54:46.406Z,5.2
2018-12-14T06:57:46.552Z,5.3
2018-12-14T07:00:46.858Z,5.5
2018-12-14T07:03:46.460Z,5.3
2018-12-14T07:06:46.824Z,5.3
2018-12-14T07:09:46.884Z,5.3
2018-12-14T07:12:47.090Z,5.3
2018-12-14T07:15:46.720Z,5.2
2018-12-14T07:18:46.623Z,5.3
2018-12-14T07:21:46.848Z,5.3
2018-12-14T07:24:46.642Z,5.5
2018-12-14T07:27:46.523Z,5.5
2018-12-14T07:30:46.804Z,5.5
2018-12-14T07:33:46.385Z,5.5
2018-12-14T07:36:47.214Z,5.3
2018-12-14T07:39:46.681Z,5.3
2018-12-14T07:42:46.429Z,5.2
2018-12-14T07:45:46.864Z,5.2
2018-12-14T07:48:46.561Z,5.2
2018-12-14T07:51:46.788Z,5.2
2018-12-14T07:54:46.711Z,5.3
2018-12-14T07:57:46.600Z,5.4
2018-12-14T08:00:47.071Z,5.3
2018-12-14T08:03:46.456Z,5.3
2018-12-14T08:06:46.891Z,5.4
2018-12-14T08:09:46.879Z,5.5
2018-12-14T08:12:46.664Z,5.4
2018-12-14T08:15:46.581Z,5.2
2018-12-14T08:18:46.885Z,5.3
2018-12-14T08:21:46.438Z,5.5
2018-12-14T08:24:46.455Z,5.3
2018-12-14T08:27:46.518Z,5.4
2018-12-14T08:30:46.413Z,5.5
2018-12-14T08:33:46.505Z,5.6
2018-12-14T08:36:46.828Z,5.7
2018-12-14T08:39:46.950Z,5.5
2018-12-14T08:42:46.373Z,5.6
2018-12-14T08:45:47.074Z,5.5
2018-12-14T08:48:46.510Z,5.7
2018-12-14T08:51:46.475Z,5.7
2018-12-14T08:54:46.596Z,5.7
2018-12-14T08:57:46.847Z,5.9
2018-12-14T09:00:47.450Z,5.9
2018-12-14T09:03:46.454Z,5.6
2018-12-14T09:06:46.544Z,5.4
2018-12-14T09:09:47.670Z,5.3
2018-12-14T09:12:46.493Z,5.4
2018-12-14T09:15:46.994Z,5.3
2018-12-14T09:18:46.628Z,5.3
2018-12-14T09:21:46.831Z,5.4
2018-12-14T09:24:46.353Z,5.2
2018-12-14T09:27:46.419Z,5.1
2018-12-14T09:30:46.917Z,5.2
2018-12-14T09:33:46.368Z,5.2
2018-12-14T09:36:46.826Z,5.1
2018-12-14T09:39:46.890Z,5.1
2018-12-14T09:42:46.385Z,5.2
2018-12-14T09:45:46.686Z,5.3
2018-12-14T09:48:46.821Z,5.3
2018-12-14T09:51:46.400Z,5.5
2018-12-14T09:54:46.829Z,5.4
2018-12-14T09:57:46.375Z,5.3
2018-12-14T10:00:46.584Z,5.4
2018-12-14T10:03:46.421Z,5.5
2018-12-14T10:06:46.479Z,7.4
2018-12-14T10:09:46.816Z,6.8
2018-12-14T10:12:46.634Z,6.1
2018-12-14T10:15:46.499Z,7.2
2018-12-14T10:18:46.429Z,8
2018-12-14T10:21:47.178Z,7.4
2018-12-14T10:24:46.552Z,6.3
2018-12-14T10:27:46.424Z,6.1
2018-12-14T10:30:46.540Z,5.8
2018-12-14T10:33:46.593Z,6.1
2018-12-14T10:36:46.393Z,5.7
2018-12-14T10:39:46.579Z,5.6
2018-12-14T10:42:46.788Z,5.6
2018-12-14T10:45:46.321Z,5.4
2018-12-14T10:48:46.365Z,5.6
2018-12-14T10:51:46.547Z,5.6
2018-12-14T10:54:46.502Z,5.4
2018-12-14T10:57:46.477Z,5.6
2018-12-14T11:00:46.996Z,5.3
2018-12-14T11:03:46.506Z,5.4
2018-12-14T11:06:46.658Z,5.7
2018-12-14T11:09:47.061Z,5.4
2018-12-14T11:12:47.391Z,5.6
2018-12-14T11:15:46.933Z,5.7
2018-12-14T11:18:46.425Z,5.5
2018-12-14T11:21:46.982Z,5.3
2018-12-14T11:24:46.271Z,5.2
2018-12-14T11:27:47.054Z,5.2
2018-12-14T11:30:47.361Z,5.1
2018-12-14T11:33:46.548Z,5.1
2018-12-14T11:36:46.551Z,5.3
2018-12-14T11:39:46.461Z,5.4
2018-12-14T11:42:46.870Z,5.5
2018-12-14T11:45:46.310Z,5.6
2018-12-14T11:48:46.397Z,5.3
2018-12-14T11:51:46.578Z,5.3
2018-12-14T11:54:46.311Z,5.5
2018-12-14T11:57:46.780Z,5.4
2018-12-14T12:00:46.654Z,6
2018-12-14T12:03:46.737Z,5.7
2018-12-14T12:06:46.496Z,5.4
2018-12-14T12:09:46.879Z,5.4
2018-12-14T12:12:46.636Z,5.3
2018-12-14T12:15:46.554Z,5.6
2018-12-14T12:18:46.766Z,5.4
2018-12-14T12:21:46.554Z,5.4
2018-12-14T12:24:46.537Z,5.3
2018-12-14T12:27:46.278Z,5.2
2018-12-14T12:30:46.802Z,5.4
2018-12-14T12:33:46.209Z,5.2
2018-12-14T12:36:46.350Z,5.4
2018-12-14T12:39:46.474Z,5.8
2018-12-14T12:42:46.354Z,6.2
2018-12-14T12:45:46.441Z,6.5
2018-12-14T12:48:46.887Z,6.1
2018-12-14T12:51:46.806Z,5.6
2018-12-14T12:54:46.597Z,5.9
2018-12-14T12:57:46.729Z,5.8
2018-12-14T13:00:46.545Z,5.8
2018-12-14T13:03:46.320Z,5.8
2018-12-14T13:06:46.454Z,6
2018-12-14T13:09:46.727Z,6
2018-12-14T13:12:46.328Z,5.9
2018-12-14T13:15:46.297Z,5.7
2018-12-14T13:18:46.842Z,5.8
2018-12-14T13:21:47.108Z,5.9
2018-12-14T13:24:46.511Z,6
2018-12-14T13:27:46.502Z,5.9
2018-12-14T13:30:46.987Z,6.2
2018-12-14T13:33:46.409Z,6.3
2018-12-14T13:36:46.402Z,5.9
2018-12-14T13:39:47.086Z,5.8
2018-12-14T13:42:46.303Z,5.6
2018-12-14T13:45:46.351Z,5.7
2018-12-14T13:48:46.541Z,6
2018-12-14T13:51:46.904Z,5.9
2018-12-14T13:54:47.962Z,5.5
2018-12-14T13:57:46.341Z,5.6
2018-12-14T14:00:46.508Z,5.8
2018-12-14T14:03:46.325Z,6.5
2018-12-14T14:06:46.358Z,6
2018-12-14T14:09:46.539Z,5.7
2018-12-14T14:12:46.708Z,5.6
2018-12-14T14:15:51.165Z,5.4
2018-12-14T14:18:46.305Z,5.4
2018-12-14T14:21:46.394Z,5.4
2018-12-14T14:24:46.377Z,5.5
2018-12-14T14:27:46.809Z,5.7
2018-12-14T14:30:46.677Z,5.7
2018-12-14T14:33:46.784Z,5.8
2018-12-14T14:36:46.499Z,6.2
2018-12-14T14:39:46.466Z,5.9
2018-12-14T14:42:46.614Z,5.9
2018-12-14T14:45:46.585Z,5.8
2018-12-14T14:48:46.623Z,5.5
2018-12-14T14:51:46.399Z,5.7
2018-12-14T14:54:46.653Z,5.7
2018-12-14T14:57:46.412Z,5.6
2018-12-14T15:00:46.305Z,5.5
2018-12-14T15:03:46.352Z,5.8
2018-12-14T15:06:46.460Z,5.8
2018-12-14T15:09:46.227Z,5.9
2018-12-14T15:12:46.685Z,5.8
2018-12-14T15:15:46.717Z,5.7
2018-12-14T15:18:46.239Z,5.5
2018-12-14T15:21:46.359Z,5.5
2018-12-14T15:24:46.612Z,5.6
2018-12-14T15:27:46.492Z,5.3
2018-12-14T15:30:46.409Z,5.3
2018-12-14T15:33:46.543Z,5.3
2018-12-14T15:36:46.343Z,5.3
2018-12-14T15:39:46.196Z,5.5
2018-12-14T15:42:46.382Z,5.7
2018-12-14T15:45:46.346Z,6.1
2018-12-14T15:48:46.416Z,5.8
2018-12-14T15:51:46.246Z,5.6
2018-12-14T15:54:46.321Z,5.4
2018-12-14T15:57:46.366Z,5.4
2018-12-14T16:00:46.172Z,5.5
2018-12-14T16:03:46.444Z,5.6
2018-12-14T16:06:46.591Z,13
2018-12-14T16:09:46.821Z,11.7
2018-12-14T16:12:46.510Z,10.6
2018-12-14T16:15:46.557Z,8.7
2018-12-14T16:18:46.400Z,8.3
2018-12-14T16:21:46.814Z,8.6
2018-12-14T16:24:47.063Z,7.8
2018-12-14T16:27:46.630Z,7.6
2018-12-14T16:30:46.474Z,8
2018-12-14T16:33:46.963Z,7.5
2018-12-14T16:36:46.185Z,7.6
2018-12-14T16:39:46.287Z,8.1
2018-12-14T16:42:46.331Z,8.9
2018-12-14T16:45:46.258Z,8
2018-12-14T16:48:46.522Z,7
2018-12-14T16:51:46.280Z,6.4
2018-12-14T16:54:46.547Z,7.3
2018-12-14T16:57:46.168Z,7.8
2018-12-14T17:00:46.461Z,6.9
2018-12-14T17:03:47.174Z,6.6
2018-12-14T17:06:46.590Z,6.5
2018-12-14T17:09:46.216Z,6.3
2018-12-14T17:12:46.360Z,6.3
2018-12-14T17:15:46.333Z,6.9
2018-12-14T17:18:46.245Z,8
2018-12-14T17:21:46.712Z,9
2018-12-14T17:24:50.278Z,7.8
2018-12-14T17:27:50.914Z,7
2018-12-14T17:30:46.973Z,7.7
2018-12-14T17:33:46.733Z,7.1
2018-12-14T17:36:46.592Z,7.5
2018-12-14T17:39:46.400Z,7.7
2018-12-14T17:42:46.297Z,7.7
2018-12-14T17:45:46.678Z,7.2
2018-12-14T17:48:46.162Z,6.9
2018-12-14T17:51:46.498Z,6.9
2018-12-14T17:54:46.738Z,6.6
2018-12-14T17:57:46.656Z,7.4
2018-12-14T18:00:46.590Z,7.3
2018-12-14T18:03:46.471Z,7.1
2018-12-14T18:06:46.487Z,6.4
2018-12-14T18:09:46.446Z,6.8
2018-12-14T18:12:46.412Z,6.4
2018-12-14T18:15:46.937Z,6.3
2018-12-14T18:18:46.668Z,6.2
2018-12-14T18:21:46.623Z,6.2
2018-12-14T18:24:46.562Z,5.8
2018-12-14T18:27:46.132Z,6.2
2018-12-14T18:30:46.269Z,6.4
2018-12-14T18:33:46.411Z,6
2018-12-14T18:36:46.443Z,5.8
2018-12-14T18:39:46.210Z,5.8
2018-12-14T18:42:46.261Z,5.8
2018-12-14T18:45:53.706Z,5.5
2018-12-14T18:48:46.351Z,5.6
2018-12-14T18:51:46.368Z,5.6
2018-12-14T18:54:46.494Z,6.1
2018-12-14T18:57:46.280Z,5.6
2018-12-14T19:00:46.371Z,5.5
2018-12-14T19:03:46.217Z,5.4
2018-12-14T19:06:46.700Z,5.5
2018-12-14T19:09:46.243Z,5.6
2018-12-14T19:12:46.259Z,5.3
2018-12-14T19:15:46.187Z,5.2
2018-12-14T19:18:46.355Z,5.3
2018-12-14T19:21:46.268Z,5.6
2018-12-14T19:24:46.185Z,6
2018-12-14T19:27:46.299Z,5.6
2018-12-14T19:30:46.620Z,5.4
2018-12-14T19:33:46.114Z,5.1
2018-12-14T19:36:46.513Z,5.1
2018-12-14T19:39:46.409Z,5.3
2018-12-14T19:42:46.602Z,5.4
2018-12-14T19:45:47.083Z,5.7
2018-12-14T19:48:46.454Z,6
2018-12-14T19:51:46.062Z,6
2018-12-14T19:54:46.090Z,8
2018-12-14T19:57:46.581Z,6.7
2018-12-14T20:00:46.458Z,8.4
2018-12-14T20:03:46.309Z,11.8
2018-12-14T20:06:46.257Z,17.2
2018-12-14T20:09:47.294Z,18.1
2018-12-14T20:12:46.670Z,15.7
2018-12-14T20:15:46.239Z,14.7
2018-12-14T20:18:46.624Z,14.4
2018-12-14T20:21:46.664Z,14.3
2018-12-14T20:24:46.351Z,13.6
2018-12-14T20:27:46.247Z,15
2018-12-14T20:30:46.653Z,13.4
2018-12-14T20:33:46.665Z,12
2018-12-14T20:36:46.574Z,11.8
2018-12-14T20:39:46.217Z,10.2
2018-12-14T20:42:46.213Z,9.3
2018-12-14T20:45:47.583Z,9.3
2018-12-14T20:48:46.565Z,8.1
2018-12-14T20:51:46.187Z,9.1
2018-12-14T20:54:46.302Z,9.4
2018-12-14T20:57:46.265Z,8.6
2018-12-14T21:00:46.189Z,7.9
2018-12-14T21:03:46.577Z,8.2
2018-12-14T21:06:46.268Z,8.1
2018-12-14T21:09:46.115Z,8.7
2018-12-14T21:12:46.357Z,7.6
2018-12-14T21:15:47.019Z,7.2
2018-12-14T21:18:46.192Z,8.5
2018-12-14T21:21:46.101Z,9.2
2018-12-14T21:24:46.219Z,8.7
2018-12-14T21:27:46.216Z,7.9
2018-12-14T21:30:46.319Z,7.8
2018-12-14T21:33:46.116Z,8.1
2018-12-14T21:36:46.535Z,7.4
2018-12-14T21:39:46.564Z,7.4
2018-12-14T21:42:46.175Z,7.2
2018-12-14T21:45:46.602Z,7.5
2018-12-14T21:48:46.557Z,8
2018-12-14T21:51:46.578Z,7.1
2018-12-14T21:54:46.308Z,7.4
2018-12-14T21:57:46.132Z,6.9
2018-12-14T22:00:46.487Z,7.5
2018-12-14T22:03:46.125Z,8.3
2018-12-14T22:06:46.324Z,7.4
2018-12-14T22:09:46.516Z,6.9
2018-12-14T22:12:46.655Z,6.5
2018-12-14T22:15:46.259Z,6.5
2018-12-14T22:18:45.992Z,6.3
2018-12-14T22:21:46.183Z,6.7
2018-12-14T22:24:46.278Z,7
2018-12-14T22:27:46.426Z,6.5
2018-12-14T22:30:46.298Z,6.3
2018-12-14T22:33:46.197Z,6.5
2018-12-14T22:36:46.139Z,6.3
2018-12-14T22:39:46.424Z,7.1
2018-12-14T22:42:45.953Z,6.4
2018-12-14T22:45:46.182Z,6.4
2018-12-14T22:48:46.038Z,6.1
2018-12-14T22:51:46.613Z,6.2
2018-12-14T22:54:46.324Z,6
2018-12-14T22:57:46.340Z,6.1
2018-12-14T23:00:46.540Z,6
2018-12-14T23:03:46.393Z,5.8
2018-12-14T23:06:46.363Z,6.6
2018-12-14T23:09:46.807Z,6.5
2018-12-14T23:12:45.969Z,6.1
2018-12-14T23:15:46.174Z,6.4
2018-12-14T23:18:46.165Z,6.2
2018-12-14T23:21:46.913Z,5.9
2018-12-14T23:24:46.258Z,5.5
2018-12-14T23:27:46.452Z,5.6
2018-12-14T23:30:46.099Z,5.7
2018-12-14T23:33:46.195Z,6.1
2018-12-14T23:36:46.407Z,5.7
2018-12-14T23:39:45.970Z,5.8
2018-12-14T23:42:46.358Z,5.7
2018-12-14T23:45:46.466Z,5.7
2018-12-14T23:48:46.080Z,5.8
2018-12-14T23:51:46.532Z,6
2018-12-14T23:54:46.275Z,5.9
2018-12-14T23:57:46.093Z,5.9
